Time;durP1;ratioP1;P1;durP2;ratioP2;P2;SDS_P1;SDS_P2;PMS_P1;PMS_P2;Temp;Humidity;BMP_temperature;BMP_pressure;BME280_temperature;BME280_humidity;BME280_pressure;Samples;Min_cycle;Max_cycle;Signal;HPM_P1;HPM_P2
2023/04/07 00:01:31;;;;;;;;;;;;;;;16.13;47.79;101580.84;7263110;19;152770;-56
2023/04/07 00:03:58;;;;;;;;;;;;;;;16.07;47.60;101583.88;7256987;19;153370;-56
2023/04/07 00:06:26;;;;;;;;;;;;;;;16.07;47.60;101583.88;7257704;19;154567;-56
2023/04/07 00:08:53;;;;;;;;;;;;;;;16.08;47.58;101586.38;7252174;19;154728;-56
2023/04/07 00:11:22;;;;;;;;;;;;;;;16.06;47.51;101594.19;7256736;19;153100;-56
2023/04/07 00:13:49;;;;;;;;;;;;;;;16.06;47.41;101596.97;7254856;19;153759;-56
2023/04/07 00:16:16;;;;;;;;;;;;;;;16.07;47.75;101601.44;7254020;19;153881;-56
2023/04/07 00:18:43;;;;;;;;;;;;;;;16.05;47.50;101594.44;7253832;19;152244;-56
2023/04/07 00:21:10;;;;;;;;;;;;;;;16.03;47.60;101598.31;7257215;19;154589;-56
2023/04/07 00:23:37;;;;;;;;;;;;;;;16.05;47.71;101595.28;7262868;19;154194;-56
2023/04/07 00:26:03;;;;;;;;;;;;;;;16.05;47.94;101595.28;7255330;19;153810;-55
2023/04/07 00:28:30;;;;;;;;;;;;;;;16.04;47.35;101588.00;7253775;19;153488;-56
2023/04/07 00:30:57;;;;;;;;;;;;;;;16.05;47.83;101598.06;7253422;19;152583;-56
2023/04/07 00:33:24;;;;;;;;;;;;;;;16.05;47.63;101594.44;7252538;19;153096;-55
2023/04/07 00:35:53;;;;;;;;;;;;;;;16.04;47.36;101601.94;7251703;19;153303;-55
2023/04/07 00:38:20;;;;;;;;;;;;;;;16.02;47.54;101602.22;7253811;19;152945;-56
2023/04/07 00:40:46;;;;;;;;;;;;;;;16.04;47.82;101599.16;7255129;19;154816;-56
2023/04/07 00:43:13;;;;;;;;;;;;;;;16.04;47.33;101601.94;7254512;19;153807;-55
2023/04/07 00:45:40;;;;;;;;;;;;;;;16.02;47.66;101605.00;7260561;19;152433;-56
2023/04/07 00:48:07;;;;;;;;;;;;;;;16.02;47.54;101596.66;7250908;19;155736;-55
2023/04/07 00:50:34;;;;;;;;;;;;;;;16.01;47.76;101603.31;7255554;19;153367;-56
2023/04/07 00:53:03;;;;;;;;;;;;;;;16.05;47.39;101600.00;7256882;19;153785;-56
2023/04/07 00:55:30;;;;;;;;;;;;;;;16.02;47.47;101610.59;7251134;19;154268;-56
2023/04/07 00:57:56;;;;;;;;;;;;;;;15.99;47.29;101608.31;7253134;19;153144;-55
2023/04/07 01:00:26;;;;;;;;;;;;;;;16.03;47.58;101614.22;7255239;19;153652;-56
2023/04/07 01:02:57;;;;;;;;;;;;;;;15.99;47.30;101616.66;7253735;19;153525;-56
2023/04/07 01:05:31;;;;;;;;;;;;;;;15.96;47.66;101613.56;7251179;19;152487;-56
2023/04/07 01:08:07;;;;;;;;;;;;;;;15.97;47.54;101620.81;7261659;19;153816;-56
2023/04/07 01:10:42;;;;;;;;;;;;;;;15.99;47.66;101604.66;7256241;19;153069;-56
2023/04/07 01:13:19;;;;;;;;;;;;;;;16.01;47.77;101613.63;7254642;19;152624;-56
2023/04/07 01:15:48;;;;;;;;;;;;;;;16.03;47.14;101617.00;7249426;19;155629;-55
2023/04/07 01:18:19;;;;;;;;;;;;;;;15.98;47.45;101609.44;7251668;19;154331;-56
2023/04/07 01:20:49;;;;;;;;;;;;;;;15.99;47.65;101621.38;7253382;19;153810;-56
2023/04/07 01:23:22;;;;;;;;;;;;;;;15.98;47.40;101616.94;7257543;19;153769;-55
2023/04/07 01:25:58;;;;;;;;;;;;;;;15.98;47.41;101622.53;7252235;19;154377;-56
2023/04/07 01:28:28;;;;;;;;;;;;;;;15.99;47.64;101624.19;7255639;19;154229;-56
2023/04/07 01:30:57;;;;;;;;;;;;;;;15.97;47.51;101621.66;7258934;19;153733;-56
2023/04/07 01:33:24;;;;;;;;;;;;;;;16.00;47.59;101623.09;7251014;19;155127;-56
2023/04/07 01:35:51;;;;;;;;;;;;;;;15.95;47.72;101620.22;7250539;19;155717;-55
2023/04/07 01:38:19;;;;;;;;;;;;;;;15.95;47.51;101615.50;7253520;19;153641;-56
2023/04/07 01:40:47;;;;;;;;;;;;;;;15.95;47.42;101625.81;7254683;19;154939;-55
2023/04/07 01:43:15;;;;;;;;;;;;;;;15.95;47.71;101621.06;7255701;19;154101;-55
2023/04/07 01:45:43;;;;;;;;;;;;;;;15.97;47.66;101623.63;7252235;19;152740;-55
2023/04/07 01:48:10;;;;;;;;;;;;;;;15.95;47.48;101623.88;7250859;19;153530;-56
2023/04/07 01:50:37;;;;;;;;;;;;;;;15.94;47.66;101624.97;7260484;19;153857;-56
2023/04/07 01:53:04;;;;;;;;;;;;;;;15.94;47.42;101633.31;7255012;19;153621;-56
2023/04/07 01:55:31;;;;;;;;;;;;;;;15.93;47.42;101633.59;7246590;19;153512;-56
2023/04/07 01:58:02;;;;;;;;;;;;;;;15.93;47.20;101622.47;7252833;19;153709;-56
2023/04/07 02:00:30;;;;;;;;;;;;;;;15.95;47.68;101631.38;7254051;19;152966;-56
2023/04/07 02:02:58;;;;;;;;;;;;;;;15.93;47.55;101637.22;7250788;19;153061;-55
2023/04/07 02:05:26;;;;;;;;;;;;;;;15.91;47.22;101633.00;7249203;19;154276;-56
2023/04/07 02:07:56;;;;;;;;;;;;;;;15.92;47.53;101637.47;7250623;19;152359;-55
2023/04/07 02:10:26;;;;;;;;;;;;;;;15.90;47.35;101634.94;7251551;19;153254;-56
2023/04/07 02:12:53;;;;;;;;;;;;;;;15.91;47.56;101636.63;7261127;19;153503;-56
2023/04/07 02:15:21;;;;;;;;;;;;;;;15.94;47.33;101632.50;7246321;19;153063;-56
2023/04/07 02:17:50;;;;;;;;;;;;;;;15.92;47.55;101637.47;7247443;19;153844;-56
2023/04/07 02:20:19;;;;;;;;;;;;;;;15.89;47.74;101630.50;7253084;19;153017;-56
2023/04/07 02:22:46;;;;;;;;;;;;;;;15.90;47.33;101637.72;7251360;19;154261;-56
2023/04/07 02:25:16;;;;;;;;;;;;;;;15.91;47.65;101646.94;7250003;19;152308;-56
2023/04/07 02:27:42;;;;;;;;;;;;;;;15.89;47.51;101646.38;7248060;19;152808;-56
2023/04/07 02:30:09;;;;;;;;;;;;;;;15.91;47.48;101647.78;7251414;19;153791;-56
2023/04/07 02:32:36;;;;;;;;;;;;;;;15.89;47.19;101650.00;7246775;19;154164;-56
2023/04/07 02:35:03;;;;;;;;;;;;;;;15.89;47.38;101633.28;7257304;19;153703;-56
2023/04/07 02:37:30;;;;;;;;;;;;;;;15.90;47.15;101646.09;7253227;19;152899;-55
2023/04/07 02:39:57;;;;;;;;;;;;;;;15.87;47.40;101646.63;7251731;19;151877;-56
2023/04/07 02:42:24;;;;;;;;;;;;;;;15.87;47.68;101643.84;7250879;19;152847;-56
2023/04/07 02:44:51;;;;;;;;;;;;;;;15.87;47.66;101645.78;7249689;19;153419;-56
2023/04/07 02:47:17;;;;;;;;;;;;;;;15.87;47.40;101645.78;7249503;19;154386;-56
2023/04/07 02:49:44;;;;;;;;;;;;;;;15.87;47.41;101654.97;7249202;19;153945;-56
2023/04/07 02:52:11;;;;;;;;;;;;;;;15.85;47.43;101648.81;7251578;19;153444;-56
2023/04/07 02:54:38;;;;;;;;;;;;;;;15.86;47.16;101650.50;7249476;19;154185;-56
2023/04/07 02:57:05;;;;;;;;;;;;;;;15.86;47.47;101653.28;7256615;19;153761;-56
2023/04/07 02:59:32;;;;;;;;;;;;;;;15.86;47.10;101652.44;7251058;19;153217;-56
2023/04/07 03:01:59;;;;;;;;;;;;;;;15.85;47.64;101650.78;7247763;19;153216;-56
2023/04/07 03:04:26;;;;;;;;;;;;;;;15.86;47.47;101652.44;7252525;19;153796;-55
2023/04/07 03:06:53;;;;;;;;;;;;;;;15.86;47.36;101644.94;7256555;19;152171;-56
2023/04/07 03:09:20;;;;;;;;;;;;;;;15.85;47.37;101656.34;7254560;19;153994;-56
2023/04/07 03:11:46;;;;;;;;;;;;;;;15.88;47.42;101658.63;7258850;19;152340;-57
2023/04/07 03:14:13;;;;;;;;;;;;;;;15.87;47.40;101654.13;7258488;19;153420;-56
2023/04/07 03:16:40;;;;;;;;;;;;;;;15.84;47.63;101654.66;7254221;19;154469;-56
2023/04/07 03:19:08;;;;;;;;;;;;;;;15.85;47.48;101662.75;7263750;19;152603;-56
2023/04/07 03:21:39;;;;;;;;;;;;;;;15.83;47.28;101656.59;7257711;19;152709;-55
2023/04/07 03:24:06;;;;;;;;;;;;;;;15.86;47.36;101666.38;7256239;19;153745;-55
2023/04/07 03:26:33;;;;;;;;;;;;;;;15.85;47.40;101661.94;7256425;19;153425;-55
2023/04/07 03:29:00;;;;;;;;;;;;;;;15.84;47.34;101663.03;7258090;19;153316;-55
2023/04/07 03:31:27;;;;;;;;;;;;;;;15.83;47.22;101667.75;7257818;19;152716;-56
2023/04/07 03:33:54;;;;;;;;;;;;;;;15.84;47.16;101668.59;7251860;19;153714;-55
2023/04/07 03:36:21;;;;;;;;;;;;;;;15.85;47.43;101651.59;7250172;19;155197;-55
2023/04/07 03:38:47;;;;;;;;;;;;;;;15.84;47.17;101663.03;7254931;19;153291;-55
2023/04/07 03:41:14;;;;;;;;;;;;;;;15.84;47.54;101675.03;7264522;19;152740;-55
2023/04/07 03:43:41;;;;;;;;;;;;;;;15.81;47.33;101664.38;7257903;19;153349;-55
2023/04/07 03:46:08;;;;;;;;;;;;;;;15.84;47.08;101660.25;7253456;19;155757;-55
2023/04/07 03:48:35;;;;;;;;;;;;;;;15.81;47.36;101667.16;7254749;19;151994;-55
2023/04/07 03:51:02;;;;;;;;;;;;;;;15.81;47.31;101667.16;7255656;19;153646;-55
2023/04/07 03:53:29;;;;;;;;;;;;;;;15.82;47.46;101670.78;7258257;19;153156;-55
2023/04/07 03:55:56;;;;;;;;;;;;;;;15.80;47.60;101668.28;7251678;19;153545;-55
2023/04/07 03:58:25;;;;;;;;;;;;;;;15.83;47.58;101672.47;7254241;19;154101;-55
2023/04/07 04:00:52;;;;;;;;;;;;;;;15.84;47.28;101657.47;7264183;19;154430;-55
2023/04/07 04:03:21;;;;;;;;;;;;;;;15.79;47.11;101658.22;7256322;19;152825;-55
2023/04/07 04:05:48;;;;;;;;;;;;;;;15.81;47.57;101657.94;7253843;19;155080;-55
2023/04/07 04:08:15;;;;;;;;;;;;;;;15.83;47.49;101669.69;7254086;19;152774;-54
2023/04/07 04:10:41;;;;;;;;;;;;;;;15.80;47.63;101665.50;7257578;19;153414;-55
2023/04/07 04:13:08;;;;;;;;;;;;;;;15.81;47.57;101667.16;7257376;19;153111;-55
2023/04/07 04:15:37;;;;;;;;;;;;;;;15.81;47.43;101663.53;7249999;19;153606;-55
2023/04/07 04:18:04;;;;;;;;;;;;;;;15.78;47.54;101676.03;7251832;19;152922;-55
2023/04/07 04:20:31;;;;;;;;;;;;;;;15.79;47.49;101665.75;7255822;19;153692;-55
2023/04/07 04:22:58;;;;;;;;;;;;;;;15.77;47.48;101663.22;7263092;19;154009;-55
2023/04/07 04:25:25;;;;;;;;;;;;;;;15.80;47.38;101671.06;7253691;19;153886;-55
2023/04/07 04:27:52;;;;;;;;;;;;;;;15.80;47.52;101673.00;7253954;19;153767;-55
2023/04/07 04:30:19;;;;;;;;;;;;;;;15.78;47.39;101666.84;7254902;19;153173;-55
2023/04/07 04:32:46;;;;;;;;;;;;;;;15.77;47.42;101667.94;7254895;19;153835;-55
2023/04/07 04:35:13;;;;;;;;;;;;;;;15.78;47.51;101680.78;7245175;19;153831;-55
2023/04/07 04:37:40;;;;;;;;;;;;;;;15.80;47.45;101675.78;7253739;19;153244;-55
2023/04/07 04:40:08;;;;;;;;;;;;;;;15.82;47.03;101684.72;7255893;19;153912;-55
2023/04/07 04:42:35;;;;;;;;;;;;;;;15.79;47.47;101685.25;7253982;19;155004;-54
2023/04/07 04:45:02;;;;;;;;;;;;;;;15.81;47.40;101696.97;7260945;19;153906;-55
2023/04/07 04:47:28;;;;;;;;;;;;;;;15.79;47.24;101691.66;7250505;19;154711;-55
2023/04/07 04:49:55;;;;;;;;;;;;;;;15.79;47.22;101699.19;7254026;19;152957;-55
2023/04/07 04:52:22;;;;;;;;;;;;;;;15.80;47.14;101695.28;7256502;19;153347;-55
2023/04/07 04:54:49;;;;;;;;;;;;;;;15.78;47.25;101700.28;7253578;19;153303;-54
2023/04/07 04:57:16;;;;;;;;;;;;;;;15.76;47.27;101697.72;7252970;19;152733;-55
2023/04/07 04:59:43;;;;;;;;;;;;;;;15.76;47.15;101703.31;7254717;19;153412;-55
2023/04/07 05:02:10;;;;;;;;;;;;;;;15.76;47.41;101699.69;7254514;19;153821;-55
2023/04/07 05:04:37;;;;;;;;;;;;;;;15.76;47.28;101708.06;7249277;19;153274;-55
2023/04/07 05:07:04;;;;;;;;;;;;;;;15.78;47.34;101705.84;7261119;19;152862;-55
2023/04/07 05:09:33;;;;;;;;;;;;;;;15.75;47.41;101700.78;7255166;19;154400;-55
2023/04/07 05:12:01;;;;;;;;;;;;;;;15.77;47.05;101701.38;7252877;19;154490;-55
2023/04/07 05:14:28;;;;;;;;;;;;;;;15.73;47.08;101703.84;7252900;19;153293;-54
2023/04/07 05:16:55;;;;;;;;;;;;;;;15.73;47.29;101702.97;7250349;19;152837;-55
2023/04/07 05:19:22;;;;;;;;;;;;;;;15.73;47.47;101705.78;7251443;19;153352;-55
2023/04/07 05:21:49;;;;;;;;;;;;;;;15.74;47.51;101705.53;7254315;19;153314;-54
2023/04/07 05:24:16;;;;;;;;;;;;;;;15.75;47.18;101709.16;7251644;19;153050;-55
2023/04/07 05:26:43;;;;;;;;;;;;;;;15.72;47.29;101715.22;7249863;19;155123;-55
2023/04/07 05:29:10;;;;;;;;;;;;;;;15.74;47.05;101719.44;7261130;19;154094;-55
2023/04/07 05:31:39;;;;;;;;;;;;;;;15.76;47.32;101722.00;7253845;19;153536;-55
2023/04/07 05:34:06;;;;;;;;;;;;;;;15.77;47.01;101718.06;7249332;19;154078;-55
2023/04/07 05:36:34;;;;;;;;;;;;;;;15.76;47.01;101716.41;7246387;19;152999;-55
2023/04/07 05:39:01;;;;;;;;;;;;;;;15.74;47.07;101724.19;7252886;19;153080;-55
2023/04/07 05:41:27;;;;;;;;;;;;;;;15.75;47.28;101732.28;7252453;19;153717;-55
2023/04/07 05:43:54;;;;;;;;;;;;;;;15.72;47.21;101737.50;7254207;19;153361;-54
2023/04/07 05:46:21;;;;;;;;;;;;;;;15.70;47.26;101735.00;7250431;19;154383;-54
2023/04/07 05:48:48;;;;;;;;;;;;;;;15.72;47.43;101732.78;7249656;19;154242;-55
2023/04/07 05:51:15;;;;;;;;;;;;;;;15.74;47.24;101738.94;7260198;19;153127;-55
2023/04/07 05:53:42;;;;;;;;;;;;;;;15.72;47.20;101740.28;7252482;19;152768;-56
2023/04/07 05:56:09;;;;;;;;;;;;;;;15.71;47.45;101750.63;7250099;19;153085;-55
2023/04/07 05:58:36;;;;;;;;;;;;;;;15.70;47.06;101737.78;7254778;19;154336;-55
2023/04/07 06:01:03;;;;;;;;;;;;;;;15.70;47.22;101745.28;7251191;19;152461;-55
2023/04/07 06:03:30;;;;;;;;;;;;;;;15.70;46.99;101748.94;7251509;19;152420;-55
2023/04/07 06:05:57;;;;;;;;;;;;;;;15.67;47.21;101749.41;7246588;19;155431;-55
2023/04/07 06:08:24;;;;;;;;;;;;;;;15.71;47.19;101756.19;7251175;19;153455;-55
2023/04/07 06:10:51;;;;;;;;;;;;;;;15.71;47.47;101752.56;7259398;19;152039;-55
2023/04/07 06:13:18;;;;;;;;;;;;;;;15.71;47.18;101763.69;7253298;19;154996;-55
2023/04/07 06:15:45;;;;;;;;;;;;;;;15.70;47.31;101762.00;7250570;19;152926;-55
2023/04/07 06:18:11;;;;;;;;;;;;;;;15.70;47.04;101764.78;7251419;19;153608;-54
2023/04/07 06:20:38;;;;;;;;;;;;;;;15.71;47.45;101774.84;7253178;19;153459;-56
2023/04/07 06:23:05;;;;;;;;;;;;;;;15.70;47.13;101768.44;7257498;19;154038;-55
2023/04/07 06:25:32;;;;;;;;;;;;;;;15.67;47.04;101771.69;7249074;19;153660;-54
2023/04/07 06:28:00;;;;;;;;;;;;;;;15.69;47.08;101771.47;7248055;19;155047;-55
2023/04/07 06:30:27;;;;;;;;;;;;;;;15.67;47.22;101773.66;7252709;19;153829;-55
2023/04/07 06:32:53;;;;;;;;;;;;;;;15.65;47.20;101764.72;7256125;19;152894;-55
2023/04/07 06:35:21;;;;;;;;;;;;;;;15.66;47.19;101772.81;7249478;19;153326;-55
2023/04/07 06:37:47;;;;;;;;;;;;;;;15.69;47.11;101779.81;7245163;19;153375;-55
2023/04/07 06:40:14;;;;;;;;;;;;;;;15.69;47.04;101783.44;7248769;19;154208;-55
2023/04/07 06:42:41;;;;;;;;;;;;;;;15.69;47.11;101786.22;7253395;19;153374;-55
2023/04/07 06:45:09;;;;;;;;;;;;;;;15.69;47.16;101785.38;7251108;19;153083;-56
2023/04/07 06:47:37;;;;;;;;;;;;;;;15.68;47.15;101783.69;7246846;19;152276;-56
2023/04/07 06:50:06;;;;;;;;;;;;;;;15.65;47.14;101782.28;7250023;19;152502;-56
2023/04/07 06:52:33;;;;;;;;;;;;;;;15.68;47.44;101789.25;7252689;19;153913;-56
2023/04/07 06:55:00;;;;;;;;;;;;;;;15.69;47.25;101789.00;7254843;19;153348;-55
2023/04/07 06:57:27;;;;;;;;;;;;;;;15.67;47.39;101790.38;7247993;19;154108;-56
2023/04/07 06:59:54;;;;;;;;;;;;;;;15.65;47.27;101796.19;7251389;19;153240;-56
2023/04/07 07:02:21;;;;;;;;;;;;;;;15.67;47.10;101801.53;7252353;19;153352;-56
2023/04/07 07:04:48;;;;;;;;;;;;;;;15.68;47.28;101797.63;7247366;19;152755;-56
2023/04/07 07:07:15;;;;;;;;;;;;;;;15.68;47.09;101800.41;7249375;19;153727;-56
2023/04/07 07:09:42;;;;;;;;;;;;;;;15.67;47.37;101801.53;7251059;19;153410;-56
2023/04/07 07:12:09;;;;;;;;;;;;;;;15.67;47.40;101801.53;7251638;19;152651;-56
2023/04/07 07:14:36;;;;;;;;;;;;;;;15.65;47.31;101806.50;7250379;19;153552;-55
2023/04/07 07:17:03;;;;;;;;;;;;;;;15.67;47.05;101802.34;7254650;19;153467;-56
2023/04/07 07:19:30;;;;;;;;;;;;;;;15.65;46.99;101798.13;7249476;19;153988;-56
2023/04/07 07:21:57;;;;;;;;;;;;;;;15.66;47.15;101797.03;7254320;19;153307;-56
2023/04/07 07:24:24;;;;;;;;;;;;;;;15.65;47.06;101803.72;7249016;19;154240;-56
2023/04/07 07:26:53;;;;;;;;;;;;;;;15.64;47.34;101808.44;7247064;19;154350;-56
2023/04/07 07:29:20;;;;;;;;;;;;;;;15.63;47.07;101809.53;7249563;19;153293;-56
2023/04/07 07:31:47;;;;;;;;;;;;;;;15.65;47.14;101810.13;7249517;19;153668;-56
2023/04/07 07:34:14;;;;;;;;;;;;;;;15.66;47.22;101814.59;7245952;19;154937;-56
2023/04/07 07:36:41;;;;;;;;;;;;;;;15.66;46.95;101822.13;7246959;19;153541;-56
2023/04/07 07:39:08;;;;;;;;;;;;;;;15.64;47.40;101825.16;7252061;19;153248;-55
2023/04/07 07:41:35;;;;;;;;;;;;;;;15.66;47.17;101836.91;7252412;19;153173;-56
2023/04/07 07:44:02;;;;;;;;;;;;;;;15.66;47.39;101824.91;7250273;19;152812;-56
2023/04/07 07:46:31;;;;;;;;;;;;;;;15.66;47.22;101825.75;7246121;19;153809;-56
2023/04/07 07:48:58;;;;;;;;;;;;;;;15.63;47.16;101842.09;7248760;19;152945;-56
2023/04/07 07:51:26;;;;;;;;;;;;;;;15.65;47.13;101832.41;7255351;19;153411;-56
2023/04/07 07:53:53;;;;;;;;;;;;;;;15.66;47.08;101833.25;7257980;19;154171;-56
2023/04/07 07:56:21;;;;;;;;;;;;;;;15.64;47.09;101829.88;7253788;19;153478;-55
2023/04/07 07:58:48;;;;;;;;;;;;;;;15.65;47.42;101834.34;7257558;19;154264;-56
2023/04/07 08:01:15;;;;;;;;;;;;;;;15.65;47.19;101829.63;7262412;19;153003;-56
2023/04/07 08:03:42;;;;;;;;;;;;;;;15.65;47.36;101831.56;7256275;19;153278;-55
2023/04/07 08:06:09;;;;;;;;;;;;;;;15.65;47.01;101834.34;7253050;19;154089;-56
2023/04/07 08:08:37;;;;;;;;;;;;;;;15.66;47.43;101828.53;7257384;19;153921;-55
2023/04/07 08:11:05;;;;;;;;;;;;;;;15.66;46.89;101836.03;7256012;19;153752;-56
2023/04/07 08:13:32;;;;;;;;;;;;;;;15.68;47.18;101833.84;7256327;19;154917;-56
2023/04/07 08:15:59;;;;;;;;;;;;;;;15.66;47.01;101838.81;7251326;19;154211;-56
2023/04/07 08:18:29;;;;;;;;;;;;;;;15.66;47.34;101847.19;7252278;19;152352;-56
2023/04/07 08:20:56;;;;;;;;;;;;;;;15.65;47.33;101845.50;7261508;19;155113;-56
2023/04/07 08:23:23;;;;;;;;;;;;;;;15.65;47.40;101837.97;7256351;19;152753;-56
2023/04/07 08:25:50;;;;;;;;;;;;;;;15.70;47.35;101840.00;7251855;19;155016;-56
2023/04/07 08:28:17;;;;;;;;;;;;;;;15.66;47.10;101841.63;7258776;19;153881;-55
2023/04/07 08:30:44;;;;;;;;;;;;;;;15.67;47.02;101846.09;7255592;19;154506;-55
2023/04/07 08:33:11;;;;;;;;;;;;;;;15.65;47.41;101842.72;7253797;19;153654;-56
2023/04/07 08:35:38;;;;;;;;;;;;;;;15.67;47.42;101834.97;7252753;19;153977;-57
2023/04/07 08:38:07;;;;;;;;;;;;;;;15.64;46.95;101841.84;7250374;19;153262;-55
2023/04/07 08:40:39;;;;;;;;;;;;;;;15.67;47.17;101846.91;7250532;19;154206;-55
2023/04/07 08:43:08;;;;;;;;;;;;;;;15.66;47.07;101847.19;7263931;19;154226;-55
2023/04/07 08:45:37;;;;;;;;;;;;;;;15.66;47.33;101847.19;7251421;19;153933;-56
2023/04/07 08:48:11;;;;;;;;;;;;;;;15.69;47.03;101855.88;7251758;19;152728;-55
2023/04/07 08:50:39;;;;;;;;;;;;;;;15.69;46.84;101857.81;7255672;19;152042;-56
2023/04/07 08:53:08;;;;;;;;;;;;;;;15.68;46.95;101859.75;7253296;19;152836;-55
2023/04/07 08:55:35;;;;;;;;;;;;;;;15.71;47.03;101859.25;7253224;19;153403;-56
2023/04/07 08:58:03;;;;;;;;;;;;;;;15.70;47.20;101860.34;7250883;19;152762;-56
2023/04/07 09:00:30;;;;;;;;;;;;;;;15.70;47.03;101865.94;7256536;19;154191;-55
2023/04/07 09:02:59;;;;;;;;;;;;;;;15.69;47.12;101866.16;7249920;19;153130;-55
2023/04/07 09:05:26;;;;;;;;;;;;;;;15.69;47.07;101864.22;7259539;19;154669;-55
2023/04/07 09:07:53;;;;;;;;;;;;;;;15.71;47.29;101869.56;7252039;19;153241;-55
2023/04/07 09:10:20;;;;;;;;;;;;;;;15.70;47.31;101863.13;7257290;19;155065;-55
2023/04/07 09:12:47;;;;;;;;;;;;;;;15.70;47.31;101865.94;7253546;19;157253;-55
2023/04/07 09:15:14;;;;;;;;;;;;;;;15.72;47.21;101866.50;7253233;19;153440;-55
2023/04/07 09:17:41;;;;;;;;;;;;;;;15.77;47.22;101876.88;7249359;19;153229;-55
2023/04/07 09:20:09;;;;;;;;;;;;;;;15.77;47.42;101868.53;7252588;19;153598;-55
2023/04/07 09:22:39;;;;;;;;;;;;;;;15.78;47.30;101859.91;7254679;19;152539;-55
2023/04/07 09:25:10;;;;;;;;;;;;;;;15.79;47.15;101869.13;7253903;19;153089;-55
2023/04/07 09:27:36;;;;;;;;;;;;;;;15.80;47.04;101868.03;7258097;19;154164;-55
2023/04/07 09:30:07;;;;;;;;;;;;;;;15.80;47.33;101862.47;7254936;19;153418;-55
2023/04/07 09:32:36;;;;;;;;;;;;;;;15.81;47.45;101872.47;7254172;19;153071;-55
2023/04/07 09:35:03;;;;;;;;;;;;;;;15.83;47.28;101861.94;7253552;19;152886;-55
2023/04/07 09:37:31;;;;;;;;;;;;;;;15.83;47.34;101860.00;7250593;19;153515;-55
2023/04/07 09:40:00;;;;;;;;;;;;;;;15.87;47.38;101865.91;7249373;19;153658;-55
2023/04/07 09:42:31;;;;;;;;;;;;;;;15.87;47.11;101868.69;7252243;19;152986;-55
2023/04/07 09:44:59;;;;;;;;;;;;;;;15.90;47.19;101870.97;7251912;19;152929;-54
2023/04/07 09:47:28;;;;;;;;;;;;;;;15.90;46.89;101863.44;7249980;19;152455;-55
2023/04/07 09:49:55;;;;;;;;;;;;;;;15.90;47.37;101865.38;7261626;19;153044;-55
2023/04/07 09:52:25;;;;;;;;;;;;;;;15.91;47.40;101875.44;7255868;19;153656;-54
2023/04/07 09:54:54;;;;;;;;;;;;;;;15.94;47.12;101872.16;7253193;19;154391;-55
2023/04/07 09:57:21;;;;;;;;;;;;;;;15.97;47.30;101861.34;7251202;19;153184;-55
2023/04/07 09:59:49;;;;;;;;;;;;;;;15.98;46.98;101862.19;7252287;19;154845;-55
2023/04/07 10:02:16;;;;;;;;;;;;;;;15.98;47.27;101862.19;7254492;19;153651;-55
2023/04/07 10:04:43;;;;;;;;;;;;;;;16.00;47.00;101855.25;7250928;19;154161;-55
2023/04/07 10:07:10;;;;;;;;;;;;;;;16.01;46.92;101861.66;7251015;19;154338;-55
2023/04/07 10:09:37;;;;;;;;;;;;;;;16.04;47.09;101863.94;7261752;19;153094;-55
2023/04/07 10:12:05;;;;;;;;;;;;;;;16.05;46.86;101860.06;7252226;19;154833;-55
2023/04/07 10:14:34;;;;;;;;;;;;;;;16.02;46.99;101866.16;7250546;19;153860;-55
2023/04/07 10:17:02;;;;;;;;;;;;;;;16.05;46.90;101859.22;7246534;19;152761;-55
2023/04/07 10:19:32;;;;;;;;;;;;;;;16.04;47.03;101866.72;7249564;19;153205;-55
2023/04/07 10:22:04;;;;;;;;;;;;;;;16.05;46.93;101864.78;7253815;19;153138;-55
2023/04/07 10:24:36;;;;;;;;;;;;;;;16.04;46.96;101861.16;7251281;19;153915;-56
2023/04/07 10:27:06;;;;;;;;;;;;;;;16.05;46.76;101853.63;7249859;19;153116;-55
2023/04/07 10:29:38;;;;;;;;;;;;;;;16.03;46.93;101853.91;7252352;19;155823;-55
2023/04/07 10:32:05;;;;;;;;;;;;;;;16.03;46.83;101857.50;7258210;19;152596;-55
2023/04/07 10:34:36;;;;;;;;;;;;;;;16.03;46.58;101854.72;7249323;19;154565;-55
2023/04/07 10:37:06;;;;;;;;;;;;;;;16.10;46.52;101853.72;7250932;19;153379;-57
2023/04/07 10:39:34;;;;;;;;;;;;;;;16.08;46.78;101853.97;7250203;19;154517;-55
2023/04/07 10:42:01;;;;;;;;;;;;;;;16.08;46.57;101853.97;7248901;19;152912;-55
2023/04/07 10:44:32;;;;;;;;;;;;;;;16.12;46.87;101865.47;7251813;19;152580;-55
2023/04/07 10:47:00;;;;;;;;;;;;;;;16.11;46.53;101855.41;7246742;19;155132;-55
2023/04/07 10:49:27;;;;;;;;;;;;;;;16.16;46.59;101856.34;7251609;19;154377;-55
2023/04/07 10:51:57;;;;;;;;;;;;;;;16.19;46.83;101849.38;7254480;19;153175;-56
2023/04/07 10:54:27;;;;;;;;;;;;;;;16.22;46.72;101858.06;7257093;19;153481;-55
2023/04/07 10:56:58;;;;;;;;;;;;;;;16.22;46.55;101860.00;7246349;19;153044;-55
2023/04/07 10:59:26;;;;;;;;;;;;;;;16.21;46.55;101858.34;7244863;19;153770;-54
2023/04/07 11:02:13;;;;;;;;;;;;;;;16.24;46.64;101861.47;7249669;19;152512;-55
2023/04/07 11:04:41;;;;;;;;;;;;;;;16.27;46.51;101860.94;7247514;19;154834;-55
2023/04/07 11:07:10;;;;;;;;;;;;;;;16.34;46.39;101863.56;7248062;19;154506;-55
2023/04/07 11:09:37;;;;;;;;;;;;;;;16.31;46.34;101859.31;7252112;19;154062;-55
2023/04/07 11:12:05;;;;;;;;;;;;;;;16.31;46.58;101862.09;7249368;19;153946;-55
2023/04/07 11:14:32;;;;;;;;;;;;;;;16.32;46.28;101857.38;7247255;19;153451;-55
2023/04/07 11:17:00;;;;;;;;;;;;;;;16.39;46.14;101850.53;7254240;19;155197;-55
2023/04/07 11:19:28;;;;;;;;;;;;;;;16.45;46.21;101852.25;7243340;19;154038;-55
2023/04/07 11:21:58;;;;;;;;;;;;;;;16.53;46.10;101850.13;7251915;19;153463;-55
2023/04/07 11:24:28;;;;;;;;;;;;;;;16.59;45.99;101855.53;7248847;19;153984;-55
2023/04/07 11:26:56;;;;;;;;;;;;;;;16.61;45.91;101847.75;7255165;19;153674;-55
2023/04/07 11:29:26;;;;;;;;;;;;;;;16.61;46.07;101852.50;7256365;19;153939;-55
2023/04/07 11:31:54;;;;;;;;;;;;;;;16.55;45.90;101859.06;7256250;19;153464;-55
2023/04/07 11:34:28;;;;;;;;;;;;;;;16.52;46.11;101851.22;7251595;19;153496;-55
2023/04/07 11:36:58;;;;;;;;;;;;;;;16.48;46.48;101855.66;7252175;19;153584;-55
2023/04/07 11:39:29;;;;;;;;;;;;;;;16.51;46.21;101863.50;7261451;19;152715;-55
2023/04/07 11:41:57;;;;;;;;;;;;;;;16.57;45.92;101854.09;7251559;19;154549;-55
2023/04/07 11:44:25;;;;;;;;;;;;;;;16.58;45.97;101851.06;7252397;19;153923;-55
2023/04/07 11:46:55;;;;;;;;;;;;;;;16.66;46.12;101852.56;7251493;19;152664;-55
2023/04/07 11:49:23;;;;;;;;;;;;;;;16.68;45.67;101855.91;7256001;19;152474;-55
2023/04/07 11:51:53;;;;;;;;;;;;;;;16.71;45.67;101853.47;7257457;19;153159;-55
2023/04/07 11:54:21;;;;;;;;;;;;;;;16.75;46.05;101857.44;7252662;19;154209;-55
2023/04/07 11:56:48;;;;;;;;;;;;;;;16.76;45.67;101856.28;7055234;19;3895247;-55
2023/04/07 11:59:19;;;;;;;;;;;;;;;16.82;45.66;101854.41;7256863;19;153209;-55
2023/04/07 12:01:47;;;;;;;;;;;;;;;16.83;45.55;101858.91;7261206;19;152855;-55
2023/04/07 12:04:14;;;;;;;;;;;;;;;16.85;45.48;101851.13;7254024;19;152586;-54
2023/04/07 12:06:42;;;;;;;;;;;;;;;16.83;45.86;101862.53;7253256;19;156162;-55
2023/04/07 12:09:18;;;;;;;;;;;;;;;16.86;45.65;101861.16;7257912;19;153597;-55
2023/04/07 12:11:48;;;;;;;;;;;;;;;16.86;45.84;101856.44;7257867;19;154169;-55
2023/04/07 12:14:15;;;;;;;;;;;;;;;16.90;45.42;101857.59;7254634;19;152931;-54
2023/04/07 12:16:42;;;;;;;;;;;;;;;16.93;45.50;101853.44;7252658;19;154167;-56
2023/04/07 12:19:09;;;;;;;;;;;;;;;16.94;45.51;101857.09;7251847;19;152175;-55
2023/04/07 12:21:36;;;;;;;;;;;;;;;16.99;45.43;101857.97;7265446;19;153052;-55
2023/04/07 12:24:03;;;;;;;;;;;;;;;16.96;45.81;101858.50;7258641;19;153891;-55
2023/04/07 12:26:31;;;;;;;;;;;;;;;16.94;45.91;101857.09;7253810;19;153114;-55
2023/04/07 12:29:03;;;;;;;;;;;;;;;16.94;45.85;101863.50;7256739;19;153221;-55